Time;durP1;ratioP1;P1;durP2;ratioP2;P2;SDS_P1;SDS_P2;PMS_P1;PMS_P2;Temp;Humidity;BMP_temperature;BMP_pressure;BME280_temperature;BME280_humidity;BME280_pressure;Samples;Min_cycle;Max_cycle;Signal;HPM_P1;HPM_P2
2023/03/21 00:01:28;;;;;;;;;;;7.40;90.30;;;;;;5052560;28;19945;-89
2023/03/21 00:03:53;;;;;;;;;;;7.40;90.70;;;;;;5052617;28;19962;-90
2023/03/21 00:06:20;;;;;;;;;;;7.40;90.60;;;;;;5052371;28;20466;-90
2023/03/21 00:08:45;;;;;;;;;;;7.40;90.50;;;;;;5038166;28;19974;-89
2023/03/21 00:11:12;;;;;;;;;;;7.50;90.10;;;;;;5032679;28;19942;-89
2023/03/21 00:13:41;;;;;;;;;;;7.50;89.70;;;;;;5032869;28;19950;-90
2023/03/21 00:16:15;;;;;;;;;;;7.40;89.50;;;;;;5032843;28;19950;-90
2023/03/21 00:18:42;;;;;;;;;;;7.40;89.40;;;;;;5046249;28;19947;-90
2023/03/21 00:21:10;;;;;;;;;;;7.40;89.50;;;;;;5052462;28;19992;-90
2023/03/21 00:23:35;;;;;;;;;;;7.40;90.40;;;;;;5052443;28;19968;-88
2023/03/21 00:26:01;;;;;;;;;;;7.40;90.30;;;;;;5052346;28;20021;-89
2023/03/21 00:28:27;;;;;;;;;;;7.40;90.10;;;;;;5051752;28;20007;-89
2023/03/21 00:30:59;;;;;;;;;;;7.50;89.80;;;;;;5053200;28;19946;-90
2023/03/21 00:33:25;;;;;;;;;;;7.50;89.50;;;;;;5055903;28;19964;-89
2023/03/21 00:35:51;;;;;;;;;;;7.40;89.10;;;;;;5055876;28;19937;-89
2023/03/21 00:38:17;;;;;;;;;;;7.40;89.00;;;;;;5051570;28;19980;-90
2023/03/21 00:40:42;;;;;;;;;;;7.40;88.90;;;;;;5055851;28;19944;-89
2023/03/21 00:43:08;;;;;;;;;;;7.40;88.40;;;;;;5055788;28;19948;-89
2023/03/21 00:45:34;;;;;;;;;;;7.40;88.30;;;;;;5055717;28;19949;-89
2023/03/21 00:47:59;;;;;;;;;;;7.40;88.70;;;;;;5048322;28;19962;-89
2023/03/21 00:50:25;;;;;;;;;;;7.30;89.40;;;;;;5035713;28;19940;-90
2023/03/21 00:52:50;;;;;;;;;;;7.20;89.80;;;;;;5035563;28;19959;-89
2023/03/21 00:55:17;;;;;;;;;;;7.20;90.60;;;;;;5035600;28;20079;-89
2023/03/21 00:57:44;;;;;;;;;;;7.20;90.30;;;;;;5035593;28;20051;-89
2023/03/21 01:00:11;;;;;;;;;;;7.20;90.10;;;;;;5035503;28;19942;-89
2023/03/21 01:02:37;;;;;;;;;;;7.00;90.40;;;;;;5035356;28;19950;-89
2023/03/21 01:05:03;;;;;;;;;;;7.00;91.70;;;;;;5035456;28;19942;-89
2023/03/21 01:07:29;;;;;;;;;;;7.10;91.90;;;;;;5037089;28;20469;-89
2023/03/21 01:09:54;;;;;;;;;;;7.20;92.40;;;;;;5055013;28;20041;-90
2023/03/21 01:12:20;;;;;;;;;;;7.20;91.70;;;;;;5055184;28;19940;-89
2023/03/21 01:14:45;;;;;;;;;;;7.20;90.30;;;;;;5053859;28;19950;-89
2023/03/21 01:17:11;;;;;;;;;;;7.20;91.20;;;;;;5055178;28;19940;-89
2023/03/21 01:19:37;;;;;;;;;;;7.30;91.00;;;;;;5038752;28;19937;-90
2023/03/21 01:22:02;;;;;;;;;;;7.40;90.60;;;;;;5054975;28;19944;-89
2023/03/21 01:24:28;;;;;;;;;;;7.40;90.50;;;;;;5055020;28;19944;-89
2023/03/21 01:26:53;;;;;;;;;;;7.40;90.70;;;;;;5054938;28;20026;-90
2023/03/21 01:29:19;;;;;;;;;;;7.50;91.70;;;;;;5038042;28;19948;-89
2023/03/21 01:31:45;;;;;;;;;;;7.50;91.50;;;;;;5034959;28;19939;-90
2023/03/21 01:34:10;;;;;;;;;;;7.40;91.20;;;;;;5034833;28;19950;-90
2023/03/21 01:36:36;;;;;;;;;;;7.40;91.00;;;;;;5034897;28;19945;-90
2023/03/21 01:39:02;;;;;;;;;;;7.30;91.20;;;;;;5044893;28;20033;-89
2023/03/21 01:41:29;;;;;;;;;;;7.20;91.40;;;;;;5034859;28;19948;-89
2023/03/21 01:43:55;;;;;;;;;;;7.10;91.50;;;;;;5035622;28;19988;-89
2023/03/21 01:46:32;;;;;;;;;;;7.00;91.70;;;;;;5053967;28;19948;-90
2023/03/21 01:49:16;;;;;;;;;;;7.00;91.70;;;;;;5054452;28;20004;-89
2023/03/21 01:51:49;;;;;;;;;;;7.00;91.30;;;;;;5054477;28;20012;-89
2023/03/21 01:54:18;;;;;;;;;;;6.90;91.10;;;;;;5054124;28;19959;-89
2023/03/21 01:56:45;;;;;;;;;;;6.80;91.00;;;;;;5054390;28;19948;-89
2023/03/21 01:59:16;;;;;;;;;;;6.70;91.10;;;;;;5054361;28;20490;-89
2023/03/21 02:01:43;;;;;;;;;;;6.70;91.10;;;;;;5054222;28;19944;-89
2023/03/21 02:04:09;;;;;;;;;;;6.60;91.00;;;;;;5053912;28;19968;-89
2023/03/21 02:06:47;;;;;;;;;;;6.50;91.00;;;;;;5054020;28;19969;-89
2023/03/21 02:09:15;;;;;;;;;;;6.60;91.10;;;;;;5054198;28;19947;-89
2023/03/21 02:11:45;;;;;;;;;;;6.70;91.20;;;;;;5054117;28;19944;-88
2023/03/21 02:14:15;;;;;;;;;;;6.70;90.60;;;;;;5052390;28;19952;-90
2023/03/21 02:16:46;;;;;;;;;;;6.70;90.30;;;;;;5053968;28;19941;-90
2023/03/21 02:19:11;;;;;;;;;;;6.70;89.60;;;;;;5053924;28;19981;-90
2023/03/21 02:21:56;;;;;;;;;;;6.70;89.50;;;;;;5053876;28;19942;-89
2023/03/21 02:24:37;;;;;;;;;;;6.70;88.80;;;;;;5054137;28;19980;-89
2023/03/21 02:27:20;;;;;;;;;;;6.70;88.80;;;;;;5053713;28;19979;-89
2023/03/21 02:30:04;;;;;;;;;;;6.60;88.60;;;;;;5053746;28;19944;-89
2023/03/21 02:32:43;;;;;;;;;;;6.60;88.10;;;;;;5048765;28;19943;-89
2023/03/21 02:35:09;;;;;;;;;;;6.60;88.30;;;;;;5034030;28;19942;-89
2023/03/21 02:37:38;;;;;;;;;;;6.60;88.40;;;;;;5033672;28;19952;-89
2023/03/21 02:40:10;;;;;;;;;;;6.60;87.90;;;;;;5033674;28;20482;-89
2023/03/21 02:42:41;;;;;;;;;;;6.40;88.10;;;;;;5033971;28;19984;-90
2023/03/21 02:45:14;;;;;;;;;;;6.30;88.80;;;;;;5033670;28;19941;-89
2023/03/21 02:47:43;;;;;;;;;;;6.20;89.30;;;;;;5033469;28;19957;-90
2023/03/21 02:50:11;;;;;;;;;;;6.20;90.70;;;;;;5033473;28;19963;-90
2023/03/21 02:52:38;;;;;;;;;;;6.20;91.30;;;;;;5033749;28;19962;-90
2023/03/21 02:55:05;;;;;;;;;;;6.20;92.00;;;;;;5032879;28;20397;-90
2023/03/21 02:57:32;;;;;;;;;;;6.20;92.60;;;;;;5033461;28;19941;-90
2023/03/21 02:59:58;;;;;;;;;;;6.40;93.10;;;;;;5033429;28;19939;-88
2023/03/21 03:02:26;;;;;;;;;;;6.40;92.80;;;;;;5036429;28;19986;-89
2023/03/21 03:04:51;;;;;;;;;;;6.30;92.40;;;;;;5053500;28;20017;-89
2023/03/21 03:07:25;;;;;;;;;;;6.40;92.90;;;;;;5052978;28;20072;-89
2023/03/21 03:10:11;;;;;;;;;;;6.50;93.40;;;;;;5051914;28;19986;-88
2023/03/21 03:12:55;;;;;;;;;;;6.60;93.90;;;;;;5047603;28;20036;-88
2023/03/21 03:15:21;;;;;;;;;;;6.90;94.50;;;;;;5033055;28;20395;-88
2023/03/21 03:17:54;;;;;;;;;;;7.00;94.90;;;;;;5033089;28;19947;-88
2023/03/21 03:20:26;;;;;;;;;;;7.10;95.10;;;;;;5042507;28;19954;-88
2023/03/21 03:23:00;;;;;;;;;;;7.10;95.20;;;;;;5052957;28;19962;-88
2023/03/21 03:25:28;;;;;;;;;;;7.10;95.30;;;;;;5052914;28;19940;-87
2023/03/21 03:27:55;;;;;;;;;;;7.10;95.40;;;;;;5052843;28;19962;-88
2023/03/21 03:30:21;;;;;;;;;;;7.40;95.60;;;;;;5043123;28;19948;-88
2023/03/21 03:32:52;;;;;;;;;;;7.40;95.70;;;;;;5031678;28;19954;-88
2023/03/21 03:35:19;;;;;;;;;;;7.50;95.70;;;;;;5032913;28;20396;-87
2023/03/21 03:37:46;;;;;;;;;;;7.50;95.70;;;;;;5032894;28;20461;-88
2023/03/21 03:40:12;;;;;;;;;;;7.60;95.70;;;;;;5040733;28;19955;-88
2023/03/21 03:42:40;;;;;;;;;;;7.50;95.50;;;;;;5052780;28;19941;-89
2023/03/21 03:45:08;;;;;;;;;;;7.40;95.00;;;;;;5052802;28;19944;-88
2023/03/21 03:47:33;;;;;;;;;;;7.20;94.80;;;;;;5051478;28;20515;-89
2023/03/21 03:49:59;;;;;;;;;;;7.20;94.60;;;;;;5052127;28;19983;-88
2023/03/21 03:52:30;;;;;;;;;;;7.00;94.30;;;;;;5052944;28;20102;-89
2023/03/21 03:54:55;;;;;;;;;;;7.20;94.80;;;;;;5052744;28;19939;-90
2023/03/21 03:57:23;;;;;;;;;;;7.40;95.10;;;;;;5052666;28;19941;-89
2023/03/21 03:59:49;;;;;;;;;;;7.50;95.10;;;;;;5047616;28;19946;-90
2023/03/21 04:02:15;;;;;;;;;;;7.60;95.10;;;;;;5032637;28;19943;-89
2023/03/21 04:04:41;;;;;;;;;;;7.60;94.90;;;;;;5032702;28;19956;-89
2023/03/21 04:07:07;;;;;;;;;;;7.40;94.60;;;;;;5035165;28;19976;-89
2023/03/21 04:09:33;;;;;;;;;;;7.50;94.70;;;;;;5038487;28;19942;-89
2023/03/21 04:11:58;;;;;;;;;;;7.40;94.40;;;;;;5056382;28;20401;-89
2023/03/21 04:14:24;;;;;;;;;;;7.40;94.40;;;;;;5056606;28;19948;-90
2023/03/21 04:16:51;;;;;;;;;;;7.40;94.50;;;;;;5056315;28;19940;-89
2023/03/21 04:19:17;;;;;;;;;;;7.50;94.80;;;;;;5056135;28;20001;-90
2023/03/21 04:21:43;;;;;;;;;;;7.70;94.90;;;;;;5036352;28;20413;-89
2023/03/21 04:24:08;;;;;;;;;;;7.70;94.90;;;;;;5036168;28;19938;-89
2023/03/21 04:26:35;;;;;;;;;;;7.70;94.90;;;;;;5036414;28;20007;-89
2023/03/21 04:29:01;;;;;;;;;;;7.70;94.80;;;;;;5051302;28;20426;-90
2023/03/21 04:31:29;;;;;;;;;;;7.50;94.30;;;;;;5051942;28;20007;-90
2023/03/21 04:33:56;;;;;;;;;;;7.50;94.50;;;;;;5055944;28;19945;-89
2023/03/21 04:36:26;;;;;;;;;;;7.50;93.90;;;;;;5055918;28;20031;-89
2023/03/21 04:38:52;;;;;;;;;;;7.40;94.10;;;;;;5055728;28;20362;-89
2023/03/21 04:41:18;;;;;;;;;;;7.50;94.40;;;;;;5039403;28;19948;-89
2023/03/21 04:43:44;;;;;;;;;;;7.70;94.70;;;;;;5035859;28;20036;-89
2023/03/21 04:46:09;;;;;;;;;;;7.70;94.80;;;;;;5035787;28;19942;-88
2023/03/21 04:48:35;;;;;;;;;;;7.80;94.70;;;;;;5035707;28;20071;-89
2023/03/21 04:51:01;;;;;;;;;;;7.70;94.60;;;;;;5048978;28;19950;-87
2023/03/21 04:53:26;;;;;;;;;;;7.70;94.70;;;;;;5055763;28;19959;-88
2023/03/21 04:55:52;;;;;;;;;;;7.60;94.80;;;;;;5055490;28;19941;-88
2023/03/21 04:58:19;;;;;;;;;;;7.50;94.50;;;;;;5054204;28;20314;-88
2023/03/21 05:00:44;;;;;;;;;;;7.60;94.80;;;;;;5044149;28;20094;-88
2023/03/21 05:03:18;;;;;;;;;;;7.80;95.30;;;;;;5035356;28;20453;-88
2023/03/21 05:05:44;;;;;;;;;;;7.90;95.50;;;;;;5035447;28;19956;-88
2023/03/21 05:08:09;;;;;;;;;;;7.90;95.20;;;;;;5040911;28;19954;-88
2023/03/21 05:10:35;;;;;;;;;;;7.70;94.40;;;;;;5055118;28;19947;-88
2023/03/21 05:13:00;;;;;;;;;;;7.50;93.30;;;;;;5054871;28;19992;-88
2023/03/21 05:15:26;;;;;;;;;;;7.50;93.50;;;;;;5055119;28;20038;-88
2023/03/21 05:17:51;;;;;;;;;;;7.30;91.50;;;;;;5047426;28;19953;-88
2023/03/21 05:20:17;;;;;;;;;;;7.10;91.70;;;;;;5035035;28;20457;-88
2023/03/21 05:22:44;;;;;;;;;;;7.30;92.90;;;;;;5035120;28;19995;-88
2023/03/21 05:25:11;;;;;;;;;;;7.30;93.00;;;;;;5035232;28;19944;-88
2023/03/21 05:27:36;;;;;;;;;;;7.00;92.10;;;;;;5054601;28;20003;-88
2023/03/21 05:30:04;;;;;;;;;;;6.90;92.20;;;;;;5053582;28;19948;-88
2023/03/21 05:32:30;;;;;;;;;;;6.90;92.10;;;;;;5054393;28;19948;-88
2023/03/21 05:34:55;;;;;;;;;;;6.70;91.10;;;;;;5054805;28;20037;-88
2023/03/21 05:37:21;;;;;;;;;;;6.40;89.50;;;;;;5050856;28;19998;-88
2023/03/21 05:39:46;;;;;;;;;;;6.40;90.30;;;;;;5034711;28;20407;-88
2023/03/21 05:42:12;;;;;;;;;;;6.20;88.90;;;;;;5034692;28;20399;-88
2023/03/21 05:44:39;;;;;;;;;;;6.00;88.90;;;;;;5034595;28;19940;-88
2023/03/21 05:47:05;;;;;;;;;;;6.00;89.90;;;;;;5035154;28;19946;-88
2023/03/21 05:49:31;;;;;;;;;;;6.10;91.10;;;;;;5034561;28;19940;-87
2023/03/21 05:51:56;;;;;;;;;;;6.00;90.90;;;;;;5034239;28;19948;-88
2023/03/21 05:54:22;;;;;;;;;;;6.00;91.30;;;;;;5034375;28;20093;-87
2023/03/21 05:56:47;;;;;;;;;;;5.90;91.10;;;;;;5034453;28;19938;-88
2023/03/21 05:59:13;;;;;;;;;;;5.90;91.10;;;;;;5051531;28;19948;-88
2023/03/21 06:01:39;;;;;;;;;;;5.90;91.10;;;;;;5054094;28;20308;-87
2023/03/21 06:04:04;;;;;;;;;;;5.90;91.20;;;;;;5054132;28;20454;-87
2023/03/21 06:06:30;;;;;;;;;;;5.90;91.20;;;;;;5053906;28;20095;-87
2023/03/21 06:08:55;;;;;;;;;;;5.90;91.40;;;;;;5038775;28;20398;-88
2023/03/21 06:11:23;;;;;;;;;;;6.10;92.50;;;;;;5032744;28;20465;-88
2023/03/21 06:13:49;;;;;;;;;;;6.10;92.30;;;;;;5032754;28;19996;-88
2023/03/21 06:16:14;;;;;;;;;;;6.10;92.10;;;;;;5033486;28;19949;-87
2023/03/21 06:18:40;;;;;;;;;;;6.10;91.30;;;;;;5045693;28;20385;-88
2023/03/21 06:21:05;;;;;;;;;;;6.10;91.20;;;;;;5033194;28;19968;-88
2023/03/21 06:23:31;;;;;;;;;;;6.20;91.50;;;;;;5033369;28;20313;-88
2023/03/21 06:25:56;;;;;;;;;;;6.20;91.60;;;;;;5032709;28;20316;-88
2023/03/21 06:28:22;;;;;;;;;;;6.40;92.30;;;;;;5031225;28;20445;-88
2023/03/21 06:30:48;;;;;;;;;;;6.40;92.80;;;;;;5031257;28;19953;-87
2023/03/21 06:33:13;;;;;;;;;;;6.60;93.00;;;;;;5029989;28;19943;-87
2023/03/21 06:35:39;;;;;;;;;;;6.70;93.00;;;;;;5032060;28;19955;-88
2023/03/21 06:38:04;;;;;;;;;;;6.90;93.40;;;;;;5040343;28;19948;-88
2023/03/21 06:40:30;;;;;;;;;;;6.90;93.30;;;;;;5038351;28;19945;-88
2023/03/21 06:42:55;;;;;;;;;;;7.10;93.30;;;;;;5034411;28;19955;-88
2023/03/21 06:45:21;;;;;;;;;;;7.40;93.10;;;;;;5032870;28;19946;-88
2023/03/21 06:47:46;;;;;;;;;;;7.60;93.20;;;;;;5032392;28;20415;-88
2023/03/21 06:50:12;;;;;;;;;;;7.80;93.30;;;;;;5042112;28;19947;-88
2023/03/21 06:52:38;;;;;;;;;;;8.10;93.20;;;;;;5032274;28;19966;-89
2023/03/21 06:55:03;;;;;;;;;;;8.20;92.70;;;;;;5028853;28;20040;-89
2023/03/21 06:57:29;;;;;;;;;;;8.20;92.70;;;;;;5016116;28;19980;-88
2023/03/21 06:59:54;;;;;;;;;;;8.30;92.80;;;;;;5030999;28;19941;-88
2023/03/21 07:02:20;;;;;;;;;;;8.40;93.00;;;;;;5030416;28;20484;-88
2023/03/21 07:04:46;;;;;;;;;;;8.50;92.90;;;;;;5028238;28;20438;-89
2023/03/21 07:07:11;;;;;;;;;;;8.70;93.20;;;;;;5036639;22;19985;-88
2023/03/21 07:09:37;;;;;;;;;;;8.80;93.20;;;;;;5023485;28;19954;-89
2023/03/21 07:12:02;;;;;;;;;;;8.90;93.30;;;;;;5035183;28;20314;-88
2023/03/21 07:14:30;;;;;;;;;;;9.00;93.30;;;;;;5030219;28;19946;-88
2023/03/21 07:16:56;;;;;;;;;;;9.00;93.20;;;;;;5035963;28;20522;-88
2023/03/21 07:19:22;;;;;;;;;;;9.00;93.20;;;;;;5032780;28;20028;-89
2023/03/21 07:21:47;;;;;;;;;;;9.00;93.40;;;;;;5030536;28;20308;-88
2023/03/21 07:24:13;;;;;;;;;;;9.20;93.40;;;;;;5032898;28;19973;-88
2023/03/21 07:26:38;;;;;;;;;;;9.30;93.40;;;;;;5031750;28;19945;-89
2023/03/21 07:29:04;;;;;;;;;;;9.30;93.40;;;;;;5029108;28;19987;-89
2023/03/21 07:31:29;;;;;;;;;;;9.40;93.50;;;;;;5031936;28;19946;-88
2023/03/21 07:33:55;;;;;;;;;;;9.40;93.30;;;;;;5029955;28;20280;-88
2023/03/21 07:36:20;;;;;;;;;;;9.50;92.80;;;;;;5027926;28;19974;-88
2023/03/21 07:38:46;;;;;;;;;;;9.70;91.60;;;;;;5029446;28;19946;-87
2023/03/21 07:41:12;;;;;;;;;;;9.70;90.70;;;;;;5034999;28;19985;-88
2023/03/21 07:43:37;;;;;;;;;;;9.80;90.20;;;;;;5035104;28;20401;-88
2023/03/21 07:46:03;;;;;;;;;;;9.90;90.30;;;;;;5033758;28;19949;-88
2023/03/21 07:48:29;;;;;;;;;;;10.00;90.30;;;;;;5040033;28;19968;-88
2023/03/21 07:50:55;;;;;;;;;;;10.00;89.90;;;;;;5039893;28;19949;-87
2023/03/21 07:53:20;;;;;;;;;;;10.10;89.70;;;;;;5040617;28;19960;-88
2023/03/21 07:55:54;;;;;;;;;;;10.10;89.70;;;;;;5030107;28;20396;-88
2023/03/21 07:58:20;;;;;;;;;;;10.20;89.50;;;;;;5033566;28;19963;-88
2023/03/21 08:00:46;;;;;;;;;;;10.30;89.60;;;;;;5036144;28;20043;-88
2023/03/21 08:03:12;;;;;;;;;;;10.60;89.20;;;;;;5035307;28;20043;-88
2023/03/21 08:05:37;;;;;;;;;;;10.90;88.80;;;;;;5033541;28;20030;-88
2023/03/21 08:08:04;;;;;;;;;;;11.00;88.40;;;;;;5036591;28;20109;-88
2023/03/21 08:10:30;;;;;;;;;;;11.10;88.20;;;;;;5030066;28;20666;-88
2023/03/21 08:12:55;;;;;;;;;;;11.20;87.90;;;;;;5020574;28;19952;-88
2023/03/21 08:15:21;;;;;;;;;;;11.30;89.00;;;;;;5040672;28;19961;-88
2023/03/21 08:17:46;;;;;;;;;;;11.40;87.50;;;;;;5033745;28;20037;-88
2023/03/21 08:20:15;;;;;;;;;;;11.40;87.50;;;;;;5031894;28;19951;-88
2023/03/21 08:22:41;;;;;;;;;;;11.50;87.00;;;;;;5029450;28;19954;-88
2023/03/21 08:25:07;;;;;;;;;;;11.70;86.20;;;;;;5030593;28;19948;-89
2023/03/21 08:27:33;;;;;;;;;;;11.70;85.60;;;;;;5020096;28;20339;-88
2023/03/21 08:29:59;;;;;;;;;;;11.90;85.20;;;;;;5034202;28;19947;-88
2023/03/21 08:32:28;;;;;;;;;;;12.10;84.70;;;;;;5031759;28;19949;-89
2023/03/21 08:34:57;;;;;;;;;;;12.40;83.90;;;;;;5031403;28;20424;-89
2023/03/21 08:37:23;;;;;;;;;;;12.50;82.90;;;;;;5034552;28;19942;-88
2023/03/21 08:39:49;;;;;;;;;;;12.60;82.80;;;;;;5034077;28;19943;-88
2023/03/21 08:42:15;;;;;;;;;;;12.90;82.10;;;;;;5033129;28;19960;-89
2023/03/21 08:44:40;;;;;;;;;;;13.10;80.80;;;;;;5032244;28;20324;-89
2023/03/21 08:47:07;;;;;;;;;;;13.20;80.30;;;;;;5029049;28;20297;-89
2023/03/21 08:49:33;;;;;;;;;;;13.30;80.20;;;;;;5033743;28;19968;-89
2023/03/21 08:51:59;;;;;;;;;;;13.60;79.80;;;;;;5029708;28;19953;-89
2023/03/21 08:54:24;;;;;;;;;;;13.70;79.90;;;;;;5032517;28;19956;-88
2023/03/21 08:56:50;;;;;;;;;;;13.80;79.30;;;;;;5029144;28;20002;-88
2023/03/21 08:59:16;;;;;;;;;;;13.80;79.70;;;;;;5025505;28;19953;-89
2023/03/21 09:01:41;;;;;;;;;;;13.80;79.90;;;;;;5028438;28;20397;-88
2023/03/21 09:04:09;;;;;;;;;;;13.90;80.50;;;;;;5031487;28;19957;-89
2023/03/21 09:06:44;;;;;;;;;;;13.90;79.30;;;;;;5030302;28;20050;-90
2023/03/21 09:09:11;;;;;;;;;;;14.00;78.40;;;;;;5034441;28;19965;-90
2023/03/21 09:11:36;;;;;;;;;;;14.20;77.80;;;;;;5029555;28;19962;-90
2023/03/21 09:14:02;;;;;;;;;;;14.30;78.60;;;;;;5028173;28;20410;-90
2023/03/21 09:16:27;;;;;;;;;;;14.30;78.10;;;;;;5029846;28;19985;-89
2023/03/21 09:18:55;;;;;;;;;;;14.30;75.90;;;;;;5030556;28;19952;-89
2023/03/21 09:21:22;;;;;;;;;;;14.30;76.70;;;;;;5027852;28;20066;-89
2023/03/21 09:23:51;;;;;;;;;;;14.30;77.30;;;;;;5033096;28;19971;-89
2023/03/21 09:26:18;;;;;;;;;;;14.40;77.30;;;;;;5031500;28;19946;-90
2023/03/21 09:28:45;;;;;;;;;;;14.50;76.50;;;;;;5027197;28;20029;-89
2023/03/21 09:31:11;;;;;;;;;;;14.50;74.40;;;;;;5031282;28;19947;-89
2023/03/21 09:33:39;;;;;;;;;;;14.50;74.20;;;;;;5028259;28;19947;-89
2023/03/21 09:36:08;;;;;;;;;;;14.70;76.30;;;;;;5030163;28;19942;-89
2023/03/21 09:38:36;;;;;;;;;;;14.80;74.30;;;;;;5034268;28;19963;-89
2023/03/21 09:41:08;;;;;;;;;;;14.80;74.20;;;;;;5032797;28;20025;-89
2023/03/21 09:43:34;;;;;;;;;;;15.00;74.30;;;;;;5039187;28;19951;-89
2023/03/21 09:46:15;;;;;;;;;;;15.10;74.40;;;;;;5027559;28;19938;-89
2023/03/21 09:48:40;;;;;;;;;;;15.20;73.60;;;;;;5038408;28;20382;-90
2023/03/21 09:51:10;;;;;;;;;;;15.30;71.80;;;;;;5041209;28;19954;-89
2023/03/21 09:53:39;;;;;;;;;;;15.40;73.90;;;;;;5024267;28;19962;-89
2023/03/21 09:56:05;;;;;;;;;;;15.50;71.80;;;;;;5035515;28;19951;-90
2023/03/21 09:58:33;;;;;;;;;;;15.60;69.30;;;;;;5034758;28;19943;-89
2023/03/21 10:01:03;;;;;;;;;;;15.70;70.40;;;;;;5035915;28;19943;-89
2023/03/21 10:03:33;;;;;;;;;;;15.80;70.40;;;;;;5030859;28;19947;-90
2023/03/21 10:06:02;;;;;;;;;;;15.90;70.10;;;;;;5031759;28;19982;-90
2023/03/21 10:08:33;;;;;;;;;;;16.00;66.70;;;;;;5028354;28;20014;-90
2023/03/21 10:11:05;;;;;;;;;;;16.10;69.40;;;;;;5032910;28;19950;-90
2023/03/21 10:13:34;;;;;;;;;;;16.30;65.70;;;;;;5031669;28;19942;-90
2023/03/21 10:16:08;;;;;;;;;;;16.40;64.60;;;;;;5028671;28;20034;-90
2023/03/21 10:18:35;;;;;;;;;;;16.40;65.30;;;;;;5031308;28;19946;-90
2023/03/21 10:21:01;;;;;;;;;;;16.70;68.30;;;;;;5028658;28;19947;-90
2023/03/21 10:23:27;;;;;;;;;;;16.90;67.60;;;;;;5029728;28;19977;-91
2023/03/21 10:25:55;;;;;;;;;;;17.00;64.90;;;;;;5030578;28;20019;-90
2023/03/21 10:28:24;;;;;;;;;;;17.20;65.90;;;;;;5028998;28;19946;-90
2023/03/21 10:30:54;;;;;;;;;;;17.30;64.80;;;;;;5030352;28;19955;-90
2023/03/21 10:33:22;;;;;;;;;;;17.30;63.30;;;;;;5030122;28;20362;-90
2023/03/21 10:35:49;;;;;;;;;;;17.10;58.70;;;;;;5031689;28;19961;-90
2023/03/21 10:38:16;;;;;;;;;;;17.20;58.80;;;;;;5030804;28;19943;-90
2023/03/21 10:40:42;;;;;;;;;;;17.30;60.30;;;;;;5029805;28;19983;-90
2023/03/21 10:43:36;;;;;;;;;;;17.30;61.10;;;;;;5023993;28;19983;-89
2023/03/21 10:46:32;;;;;;;;;;;17.40;61.30;;;;;;5023535;28;20335;-90
2023/03/21 10:48:57;;;;;;;;;;;17.50;61.90;;;;;;5019327;28;19971;-90
2023/03/21 10:51:29;;;;;;;;;;;17.60;58.20;;;;;;5030274;28;19947;-89
2023/03/21 10:53:56;;;;;;;;;;;17.60;59.00;;;;;;5022754;28;19972;-89
2023/03/21 10:56:24;;;;;;;;;;;17.60;60.90;;;;;;5029297;28;20025;-89
2023/03/21 10:58:51;;;;;;;;;;;17.70;60.10;;;;;;5032233;28;20050;-89
2023/03/21 11:01:29;;;;;;;;;;;17.80;59.80;;;;;;5035572;28;19990;-89
2023/03/21 11:03:57;;;;;;;;;;;17.90;62.50;;;;;;5025300;28;20415;-89
2023/03/21 11:06:26;;;;;;;;;;;17.90;61.40;;;;;;5031576;28;19977;-89
2023/03/21 11:09:04;;;;;;;;;;;18.00;62.20;;;;;;5032369;28;19953;-90
2023/03/21 11:11:49;;;;;;;;;;;18.30;64.40;;;;;;5030651;28;20043;-89
2023/03/21 11:14:25;;;;;;;;;;;18.40;59.70;;;;;;5032305;28;20034;-89
2023/03/21 11:16:51;;;;;;;;;;;18.30;58.80;;;;;;5033001;28;19942;-90
2023/03/21 11:19:18;;;;;;;;;;;18.40;60.80;;;;;;5033100;28;20035;-90
2023/03/21 11:21:44;;;;;;;;;;;18.30;60.20;;;;;;5033052;28;19947;-90
2023/03/21 11:24:14;;;;;;;;;;;18.40;59.30;;;;;;5031626;28;19952;-90
2023/03/21 11:26:43;;;;;;;;;;;18.60;60.90;;;;;;5032951;28;19943;-90
2023/03/21 11:29:17;;;;;;;;;;;18.80;56.60;;;;;;5032917;28;19959;-90
2023/03/21 11:31:43;;;;;;;;;;;18.90;59.50;;;;;;5033004;28;19946;-89
2023/03/21 11:34:22;;;;;;;;;;;18.80;57.30;;;;;;5032598;28;19968;-90
2023/03/21 11:36:49;;;;;;;;;;;18.80;57.60;;;;;;5032945;28;19947;-90
2023/03/21 11:39:32;;;;;;;;;;;18.80;57.30;;;;;;5031636;28;19949;-89
2023/03/21 11:41:58;;;;;;;;;;;18.60;58.00;;;;;;5032894;28;19945;-90
2023/03/21 11:44:26;;;;;;;;;;;18.80;56.70;;;;;;5032589;28;19949;-90
2023/03/21 11:46:52;;;;;;;;;;;18.90;57.20;;;;;;5033144;28;19952;-89
2023/03/21 11:49:19;;;;;;;;;;;18.90;57.20;;;;;;5032751;28;19961;-90
2023/03/21 11:51:44;;;;;;;;;;;19.10;55.70;;;;;;5031566;28;19969;-90
2023/03/21 11:54:28;;;;;;;;;;;19.30;57.10;;;;;;5030894;28;20397;-90
2023/03/21 11:57:13;;;;;;;;;;;19.40;54.90;;;;;;5032741;28;19945;-90
2023/03/21 11:59:44;;;;;;;;;;;19.30;51.50;;;;;;5032677;28;19943;-90
2023/03/21 12:02:16;;;;;;;;;;;19.50;52.40;;;;;;5032597;28;20394;-89
2023/03/21 12:04:46;;;;;;;;;;;19.40;51.30;;;;;;5032400;28;19973;-90
2023/03/21 12:07:30;;;;;;;;;;;19.70;50.40;;;;;;5031164;28;19979;-90
2023/03/21 12:10:04;;;;;;;;;;;20.00;49.50;;;;;;5032634;28;19963;-90
2023/03/21 12:12:30;;;;;;;;;;;20.40;51.20;;;;;;5032620;28;20099;-90
2023/03/21 12:14:58;;;;;;;;;;;20.40;50.10;;;;;;5032426;28;20448;-90
2023/03/21 12:17:29;;;;;;;;;;;20.70;50.40;;;;;;5032602;28;20083;-90
2023/03/21 12:20:00;;;;;;;;;;;20.80;47.60;;;;;;5031545;28;19948;-90
2023/03/21 12:22:49;;;;;;;;;;;20.60;50.10;;;;;;5032391;28;19995;-90
2023/03/21 12:25:17;;;;;;;;;;;20.60;49.70;;;;;;5031489;28;19947;-90
2023/03/21 12:27:46;;;;;;;;;;;20.90;51.10;;;;;;5033645;28;19973;-90
2023/03/21 12:30:14;;;;;;;;;;;21.20;49.70;;;;;;5031916;28;19940;-90
2023/03/21 12:32:58;;;;;;;;;;;21.20;49.60;;;;;;5028640;28;19952;-90
2023/03/21 12:35:31;;;;;;;;;;;21.10;49.60;;;;;;5026201;28;20493;-90
2023/03/21 12:38:17;;;;;;;;;;;21.30;50.10;;;;;;5032571;28;19947;-91
2023/03/21 12:40:48;;;;;;;;;;;22.30;46.90;;;;;;5031755;28;19960;-90
2023/03/21 12:43:33;;;;;;;;;;;22.70;44.90;;;;;;5031722;28;19958;-90
2023/03/21 12:46:01;;;;;;;;;;;22.50;46.70;;;;;;5030996;28;19953;-90
2023/03/21 12:48:40;;;;;;;;;;;23.10;44.60;;;;;;5032989;28;19960;-90
2023/03/21 12:51:09;;;;;;;;;;;23.80;43.20;;;;;;5028361;28;20410;-90
2023/03/21 12:53:47;;;;;;;;;;;23.30;43.50;;;;;;5031355;28;20420;-90
2023/03/21 12:56:17;;;;;;;;;;;23.70;44.40;;;;;;5029415;28;19951;-90
2023/03/21 12:58:47;;;;;;;;;;;23.80;44.80;;;;;;5031136;28;20485;-90
2023/03/21 13:01:14;;;;;;;;;;;24.00;45.80;;;;;;5027492;28;20001;-90
2023/03/21 13:03:42;;;;;;;;;;;23.80;41.50;;;;;;5029881;28;20002;-90
2023/03/21 13:06:19;;;;;;;;;;;23.90;43.40;;;;;;5033120;28;20450;-90
2023/03/21 13:09:03;;;;;;;;;;;24.00;44.40;;;;;;5034203;28;20010;-90
2023/03/21 13:11:29;;;;;;;;;;;24.10;43.40;;;;;;5043517;28;19997;-89
2023/03/21 13:14:13;;;;;;;;;;;24.00;42.20;;;;;;5029448;28;19944;-90
2023/03/21 13:16:45;;;;;;;;;;;23.60;42.10;;;;;;5030263;28;20011;-90
2023/03/21 13:19:17;;;;;;;;;;;23.00;43.90;;;;;;5031926;28;19948;-90
2023/03/21 13:21:57;;;;;;;;;;;23.30;43.60;;;;;;5032210;28;19962;-90
2023/03/21 13:24:37;;;;;;;;;;;23.40;43.40;;;;;;5031685;28;19947;-90
2023/03/21 13:27:15;;;;;;;;;;;23.80;40.60;;;;;;5032845;28;19944;-90
2023/03/21 13:29:45;;;;;;;;;;;24.30;40.20;;;;;;5036632;28;19964;-90
2023/03/21 13:32:20;;;;;;;;;;;24.90;38.90;;;;;;5030557;28;19945;-90
2023/03/21 13:34:52;;;;;;;;;;;24.20;40.60;;;;;;5027155;28;19951;-89
2023/03/21 13:37:18;;;;;;;;;;;23.40;40.30;;;;;;5029728;28;19969;-89
2023/03/21 13:39:45;;;;;;;;;;;23.40;42.00;;;;;;5027818;28;19952;-90
2023/03/21 13:42:16;;;;;;;;;;;23.50;41.10;;;;;;5031341;28;19948;-90
2023/03/21 13:44:45;;;;;;;;;;;23.80;42.60;;;;;;5028244;28;19946;-89
2023/03/21 13:47:43;;;;;;;;;;;23.90;42.90;;;;;;5024448;28;20405;-90
2023/03/21 13:50:32;;;;;;;;;;;24.30;40.20;;;;;;5006222;28;20050;-90
2023/03/21 13:53:17;;;;;;;;;;;24.10;41.30;;;;;;5029189;28;19973;-90
2023/03/21 13:55:44;;;;;;;;;;;24.20;40.60;;;;;;5025050;28;20005;-90
2023/03/21 13:58:30;;;;;;;;;;;24.10;41.10;;;;;;5031687;28;20516;-90
2023/03/21 14:01:01;;;;;;;;;;;23.80;41.20;;;;;;5029236;28;20050;-89
2023/03/21 14:03:29;;;;;;;;;;;23.30;40.90;;;;;;5033571;28;19950;-90
2023/03/21 14:05:55;;;;;;;;;;;23.10;40.80;;;;;;5221160;22;20455;-88
2023/03/21 14:08:20;;;;;;;;;;;23.70;41.30;;;;;;5056988;28;20010;-87
2023/03/21 14:10:48;;;;;;;;;;;24.00;39.40;;;;;;5064849;28;20083;-87
2023/03/21 14:13:16;;;;;;;;;;;23.60;39.90;;;;;;5064452;28;19948;-87
2023/03/21 14:15:44;;;;;;;;;;;23.50;40.30;;;;;;5070660;28;19945;-87
2023/03/21 14:18:18;;;;;;;;;;;23.50;39.60;;;;;;5073658;28;19957;-86
2023/03/21 14:20:44;;;;;;;;;;;23.30;40.00;;;;;;5074127;28;19947;-87
2023/03/21 14:23:14;;;;;;;;;;;23.10;39.30;;;;;;5072697;28;20005;-87
2023/03/21 14:25:42;;;;;;;;;;;23.40;38.60;;;;;;5067416;28;19944;-87
2023/03/21 14:28:13;;;;;;;;;;;23.70;39.10;;;;;;5071838;28;19956;-87
2023/03/21 14:30:40;;;;;;;;;;;23.70;38.00;;;;;;5071806;28;19944;-87
2023/03/21 14:33:08;;;;;;;;;;;23.90;38.40;;;;;;5065431;28;19954;-87